createdAt,value
2023-05-12T00:00:55.630Z,15.78
2023-05-12T00:03:22.333Z,15.78
2023-05-12T00:05:48.801Z,15.79
2023-05-12T00:08:15.361Z,15.84
2023-05-12T00:10:41.756Z,15.90
2023-05-12T00:13:08.537Z,15.34
2023-05-12T00:15:36.549Z,15.46
2023-05-12T00:18:03.094Z,15.58
2023-05-12T00:20:29.739Z,15.36
2023-05-12T00:22:56.110Z,15.58
2023-05-12T00:25:22.505Z,15.68
2023-05-12T00:27:48.888Z,15.69
2023-05-12T00:30:15.606Z,15.70
2023-05-12T00:32:43.335Z,15.47
2023-05-12T00:35:10.049Z,15.60
2023-05-12T00:37:36.437Z,15.50
2023-05-12T00:40:02.816Z,15.61
2023-05-12T00:42:29.269Z,15.68
2023-05-12T00:44:55.896Z,15.63
2023-05-12T00:47:22.528Z,15.48
2023-05-12T00:49:51.285Z,15.07
2023-05-12T00:52:17.684Z,15.06
2023-05-12T00:54:44.246Z,15.22
2023-05-12T00:57:10.846Z,15.45
2023-05-12T00:59:37.327Z,15.53
2023-05-12T01:02:04.228Z,15.49
2023-05-12T01:04:30.667Z,15.81
2023-05-12T01:07:04.413Z,15.51
2023-05-12T01:09:30.872Z,15.45
2023-05-12T01:11:57.227Z,15.47
2023-05-12T01:14:23.621Z,15.51
2023-05-12T01:16:52.338Z,15.01
2023-05-12T01:19:34.140Z,14.87
2023-05-12T01:22:02.201Z,15.36
2023-05-12T01:24:32.318Z,15.15
2023-05-12T01:27:00.200Z,14.74
2023-05-12T01:29:28.166Z,15.15
2023-05-12T01:31:55.160Z,15.13
2023-05-12T01:34:21.683Z,15.21
2023-05-12T01:36:48.071Z,15.22
2023-05-12T01:39:14.474Z,14.75
2023-05-12T01:41:41.042Z,14.84
2023-05-12T01:44:08.911Z,14.66
2023-05-12T01:46:35.294Z,14.67
2023-05-12T01:49:01.850Z,15.14
2023-05-12T01:51:28.293Z,14.67
2023-05-12T01:53:54.734Z,14.70
2023-05-12T01:56:21.162Z,15.03
2023-05-12T01:58:47.526Z,14.86
2023-05-12T02:01:15.365Z,14.45
2023-05-12T02:03:41.915Z,14.82
2023-05-12T02:06:08.396Z,15.29
2023-05-12T02:08:34.820Z,15.48
2023-05-12T02:11:05.054Z,15.07
2023-05-12T02:13:31.480Z,15.29
2023-05-12T02:15:57.960Z,15.39
2023-05-12T02:18:25.812Z,15.56
2023-05-12T02:20:52.271Z,15.53
2023-05-12T02:23:18.701Z,15.17
2023-05-12T02:25:45.092Z,15.52
2023-05-12T02:28:11.539Z,15.44
2023-05-12T02:30:38.103Z,15.38
2023-05-12T02:33:04.889Z,15.45
2023-05-12T02:35:32.668Z,15.57
2023-05-12T02:37:59.004Z,14.71
2023-05-12T02:40:25.399Z,14.56
2023-05-12T02:42:51.897Z,14.86
2023-05-12T02:45:19.381Z,14.64
2023-05-12T02:47:46.127Z,15.01
2023-05-12T02:50:12.621Z,15.44
2023-05-12T02:52:40.410Z,15.48
2023-05-12T02:55:07.409Z,14.91
2023-05-12T02:57:34.092Z,15.14
2023-05-12T03:00:00.933Z,15.21
2023-05-12T03:02:27.754Z,15.53
2023-05-12T03:04:54.208Z,15.60
2023-05-12T03:07:20.634Z,15.68
2023-05-12T03:09:48.471Z,15.53
2023-05-12T03:12:14.818Z,15.53
2023-05-12T03:14:41.316Z,15.44
2023-05-12T03:17:07.796Z,15.33
2023-05-12T03:19:34.213Z,15.44
2023-05-12T03:22:00.705Z,15.17
2023-05-12T03:24:27.548Z,15.42
2023-05-12T03:26:55.334Z,15.18
2023-05-12T03:29:21.773Z,14.56
2023-05-12T03:31:48.314Z,14.42
2023-05-12T03:34:14.872Z,14.47
2023-05-12T03:36:41.251Z,14.46
2023-05-12T03:39:07.649Z,14.96
2023-05-12T03:41:34.067Z,14.44
2023-05-12T03:44:01.804Z,14.37
2023-05-12T03:46:28.525Z,14.53
2023-05-12T03:48:55.365Z,14.25
2023-05-12T03:51:21.739Z,14.92
2023-05-12T03:53:48.278Z,14.66
2023-05-12T03:56:14.672Z,14.23
2023-05-12T03:58:41.272Z,14.16
2023-05-12T04:01:09.067Z,14.72
2023-05-12T04:03:35.472Z,14.66
2023-05-12T04:06:04.265Z,14.88
2023-05-12T04:08:34.048Z,14.62
2023-05-12T04:11:01.819Z,14.70
2023-05-12T04:13:29.739Z,14.35
2023-05-12T04:15:56.960Z,14.81
2023-05-12T04:18:25.418Z,14.71
2023-05-12T04:20:52.557Z,14.53
2023-05-12T04:23:18.994Z,14.90
2023-05-12T04:25:46.189Z,14.79
2023-05-12T04:28:13.148Z,14.45
2023-05-12T04:30:40.711Z,14.02
2023-05-12T04:33:07.179Z,14.70
2023-05-12T04:35:35.555Z,14.07
2023-05-12T04:38:02.277Z,15.10
2023-05-12T04:40:28.760Z,14.82
2023-05-12T04:42:55.216Z,15.30
2023-05-12T04:45:22.782Z,14.63
2023-05-12T04:47:49.607Z,14.23
2023-05-12T04:50:16.057Z,14.76
2023-05-12T04:52:43.976Z,14.80
2023-05-12T04:55:10.452Z,14.48
2023-05-12T04:57:36.837Z,14.61
2023-05-12T05:00:04.156Z,14.37
2023-05-12T05:02:30.760Z,14.60
2023-05-12T05:04:57.233Z,14.42
2023-05-12T05:07:23.650Z,14.69
2023-05-12T05:09:51.303Z,14.72
2023-05-12T05:12:17.644Z,14.81
2023-05-12T05:14:44.077Z,14.98
2023-05-12T05:17:10.589Z,15.07
2023-05-12T05:19:49.843Z,16.08
2023-05-12T05:22:18.836Z,16.14
2023-05-12T05:24:45.233Z,15.82
2023-05-12T05:27:12.917Z,15.70
2023-05-12T05:29:39.319Z,15.99
2023-05-12T05:32:06.008Z,16.16
2023-05-12T05:34:32.442Z,15.75
2023-05-12T05:36:58.817Z,16.34
2023-05-12T05:39:25.170Z,15.87
2023-05-12T05:41:51.558Z,15.43
2023-05-12T05:44:19.274Z,15.20
2023-05-12T05:46:45.665Z,15.28
2023-05-12T05:49:12.080Z,15.32
2023-05-12T05:51:38.488Z,15.50
2023-05-12T05:54:04.880Z,16.11
2023-05-12T05:56:31.235Z,15.60
2023-05-12T05:58:57.666Z,15.77
2023-05-12T06:01:25.441Z,15.60
2023-05-12T06:03:51.984Z,15.37
2023-05-12T06:06:18.593Z,15.57
2023-05-12T06:08:45.010Z,15.30
2023-05-12T06:11:11.355Z,15.87
2023-05-12T06:13:37.846Z,16.36
2023-05-12T06:16:04.678Z,15.65
2023-05-12T06:18:32.375Z,15.65
2023-05-12T06:20:58.822Z,15.66
2023-05-12T06:23:25.273Z,15.88
2023-05-12T06:25:51.861Z,15.46
2023-05-12T06:28:18.281Z,15.34
2023-05-12T06:30:44.701Z,15.67
2023-05-12T06:33:11.084Z,15.15
2023-05-12T06:35:38.866Z,15.70
2023-05-12T06:38:05.283Z,16.72
2023-05-12T06:40:31.632Z,17.14
2023-05-12T06:42:58.046Z,16.84
2023-05-12T06:45:26.563Z,16.65
2023-05-12T06:47:53.054Z,16.73
2023-05-12T06:50:19.546Z,16.56
2023-05-12T06:52:47.237Z,16.25
2023-05-12T06:55:13.596Z,16.44
2023-05-12T06:57:39.962Z,16.46
2023-05-12T07:00:07.605Z,15.90
2023-05-12T07:02:34.072Z,16.12
2023-05-12T07:05:00.515Z,16.79
2023-05-12T07:07:26.930Z,16.60
2023-05-12T07:09:54.604Z,16.28
2023-05-12T07:12:21.176Z,15.63
2023-05-12T07:14:47.552Z,16.77
2023-05-12T07:17:13.932Z,16.80
2023-05-12T07:19:40.320Z,17.03
2023-05-12T07:22:06.728Z,16.39
2023-05-12T07:24:33.110Z,16.10
2023-05-12T07:27:00.872Z,16.04
2023-05-12T07:29:27.266Z,16.42
2023-05-12T07:31:53.861Z,16.28
2023-05-12T07:34:20.340Z,16.32
2023-05-12T07:36:46.685Z,16.32
2023-05-12T07:39:13.133Z,16.62
2023-05-12T07:41:39.785Z,16.92
2023-05-12T07:44:07.507Z,17.35
2023-05-12T07:46:33.883Z,17.35
2023-05-12T07:49:00.282Z,17.40
2023-05-12T07:51:26.609Z,18.06
2023-05-12T07:53:53.073Z,17.90
2023-05-12T07:56:19.460Z,17.87
2023-05-12T07:58:47.529Z,17.70
2023-05-12T08:01:15.431Z,17.42
2023-05-12T08:03:41.884Z,17.54
2023-05-12T08:06:08.322Z,17.76
2023-05-12T08:08:34.767Z,17.49
2023-05-12T08:11:01.213Z,18.12
2023-05-12T08:13:27.607Z,17.71
2023-05-12T08:15:53.980Z,17.92
2023-05-12T08:18:21.825Z,17.57
2023-05-12T08:20:48.691Z,17.84
2023-05-12T08:23:16.120Z,18.23
2023-05-12T08:25:42.618Z,17.79
2023-05-12T08:28:08.976Z,17.90
2023-05-12T08:30:35.508Z,18.46
2023-05-12T08:33:02.764Z,18.20
2023-05-12T08:35:30.629Z,18.31
2023-05-12T08:37:57.177Z,18.10
2023-05-12T08:40:24.950Z,18.88
2023-05-12T08:43:01.737Z,18.70
2023-05-12T08:45:29.358Z,18.74
2023-05-12T08:47:58.206Z,18.50
2023-05-12T08:50:27.022Z,18.71
2023-05-12T08:52:56.084Z,20.43
2023-05-12T08:55:27.383Z,20.22
2023-05-12T08:57:57.738Z,19.23
2023-05-12T09:00:25.581Z,19.34
2023-05-12T09:02:54.791Z,19.71
2023-05-12T09:05:21.877Z,19.65
2023-05-12T09:07:49.965Z,20.05
2023-05-12T09:10:32.672Z,20.11
2023-05-12T09:13:03.806Z,20.12
2023-05-12T09:15:39.352Z,19.79
2023-05-12T09:18:06.018Z,19.50
2023-05-12T09:20:32.790Z,19.46
2023-05-12T09:22:59.265Z,19.44
2023-05-12T09:25:26.983Z,19.75
2023-05-12T09:27:55.233Z,22.00
2023-05-12T09:30:30.104Z,21.06
2023-05-12T09:33:05.514Z,20.51
2023-05-12T09:35:32.003Z,21.65
2023-05-12T09:38:05.946Z,20.34
2023-05-12T09:40:34.067Z,20.08
2023-05-12T09:43:00.579Z,20.47
2023-05-12T09:45:26.962Z,19.91
2023-05-12T09:47:53.563Z,20.19
2023-05-12T09:50:20.198Z,20.03
2023-05-12T09:52:46.548Z,20.08
2023-05-12T09:55:13.730Z,20.30
2023-05-12T09:57:43.466Z,20.68
2023-05-12T10:00:26.465Z,20.92
2023-05-12T10:02:58.634Z,21.30
2023-05-12T10:05:25.234Z,21.18
2023-05-12T10:07:57.388Z,21.37
2023-05-12T10:10:26.109Z,20.96
2023-05-12T10:12:54.209Z,20.67
2023-05-12T10:15:23.158Z,20.58
2023-05-12T10:17:53.103Z,21.05
2023-05-12T10:20:20.690Z,20.65
2023-05-12T10:22:49.173Z,20.71
2023-05-12T10:25:17.235Z,20.68
2023-05-12T10:27:44.369Z,20.47
2023-05-12T10:30:13.466Z,20.70
2023-05-12T10:32:40.192Z,20.91
2023-05-12T10:35:07.978Z,21.00
2023-05-12T10:37:35.781Z,21.66
2023-05-12T10:40:02.290Z,21.09
2023-05-12T10:42:37.675Z,21.28
2023-05-12T10:45:17.323Z,21.31
2023-05-12T10:47:47.254Z,21.82
2023-05-12T10:50:13.952Z,21.51
2023-05-12T10:52:41.094Z,21.27
2023-05-12T10:55:12.228Z,20.90
2023-05-12T10:57:49.320Z,20.94
2023-05-12T11:00:27.915Z,21.46
2023-05-12T11:02:56.884Z,21.45
2023-05-12T11:05:33.897Z,21.67
2023-05-12T11:08:02.220Z,22.01
2023-05-12T11:10:29.349Z,21.67
2023-05-12T11:12:56.920Z,21.98
2023-05-12T11:15:26.111Z,21.92
2023-05-12T11:17:52.614Z,21.11
2023-05-12T11:20:23.102Z,21.60
2023-05-12T11:22:49.798Z,21.28
2023-05-12T11:25:17.009Z,21.29
2023-05-12T11:27:46.565Z,21.66
2023-05-12T11:30:13.166Z,20.89
2023-05-12T11:32:40.993Z,21.29
2023-05-12T11:35:11.863Z,21.26
2023-05-12T11:37:38.943Z,21.77
2023-05-12T11:40:13.656Z,21.97
2023-05-12T11:42:40.220Z,21.59
2023-05-12T11:45:07.920Z,21.83
2023-05-12T11:47:34.450Z,21.86
2023-05-12T11:50:03.475Z,22.22
2023-05-12T11:52:29.943Z,22.43
2023-05-12T11:54:58.396Z,22.47
2023-05-12T11:57:26.145Z,22.37
2023-05-12T11:59:57.433Z,23.10
2023-05-12T12:02:23.865Z,22.03
2023-05-12T12:04:50.277Z,22.65
2023-05-12T12:07:28.950Z,21.37
2023-05-12T12:09:55.531Z,21.51
2023-05-12T12:12:22.116Z,21.27
2023-05-12T12:14:51.423Z,21.24
2023-05-12T12:17:17.858Z,20.97
2023-05-12T12:19:44.281Z,20.96
2023-05-12T12:22:10.829Z,20.86
2023-05-12T12:24:38.572Z,20.83
2023-05-12T12:27:05.617Z,21.09
2023-05-12T12:29:32.018Z,21.33
2023-05-12T12:31:58.548Z,22.06
2023-05-12T12:34:24.956Z,22.62
2023-05-12T12:36:51.722Z,21.69
2023-05-12T12:39:19.957Z,21.73
2023-05-12T12:41:48.016Z,21.41
2023-05-12T12:44:14.763Z,21.30
2023-05-12T12:46:43.416Z,20.98
2023-05-12T12:49:09.915Z,20.78
2023-05-12T12:51:45.495Z,20.96
2023-05-12T12:54:13.718Z,21.08
2023-05-12T12:56:40.149Z,20.84
2023-05-12T12:59:07.928Z,21.06
2023-05-12T13:01:35.027Z,21.62
2023-05-12T13:04:01.666Z,21.41
2023-05-12T13:06:28.099Z,21.86
2023-05-12T13:08:54.488Z,21.92
2023-05-12T13:11:20.973Z,22.53
2023-05-12T13:13:47.413Z,22.39
2023-05-12T13:16:15.236Z,21.96
2023-05-12T13:18:41.744Z,21.40
2023-05-12T13:21:08.137Z,21.45
2023-05-12T13:23:34.616Z,21.22
2023-05-12T13:26:00.981Z,21.15
2023-05-12T13:28:27.494Z,21.07
2023-05-12T13:30:54.058Z,21.17
2023-05-12T13:33:21.980Z,22.00
2023-05-12T13:35:48.391Z,22.34
2023-05-12T13:38:14.788Z,21.96
2023-05-12T13:40:41.154Z,22.92
2023-05-12T13:43:07.506Z,22.24
2023-05-12T13:45:34.127Z,22.47
2023-05-12T13:48:00.586Z,22.46
2023-05-12T13:50:30.379Z,22.67
2023-05-12T13:52:57.800Z,22.41
2023-05-12T13:55:24.480Z,22.41
2023-05-12T13:57:51.089Z,22.11
2023-05-12T14:00:18.109Z,22.06
2023-05-12T14:02:44.640Z,21.33
2023-05-12T14:05:11.213Z,21.58
2023-05-12T14:07:39.011Z,21.34
2023-05-12T14:10:06.514Z,21.43
2023-05-12T14:12:32.924Z,21.70
2023-05-12T14:15:07.821Z,21.98
2023-05-12T14:17:45.791Z,22.86
2023-05-12T14:20:12.683Z,22.94
2023-05-12T14:22:40.474Z,22.25
2023-05-12T14:25:07.632Z,22.63
2023-05-12T14:27:34.086Z,21.96
2023-05-12T14:30:00.517Z,21.72
2023-05-12T14:32:27.018Z,21.35
2023-05-12T14:34:53.462Z,21.15
2023-05-12T14:37:19.836Z,21.24
2023-05-12T14:39:47.537Z,21.30
2023-05-12T14:42:14.155Z,21.99
2023-05-12T14:44:40.585Z,21.73
2023-05-12T14:47:08.980Z,22.26
2023-05-12T14:49:39.452Z,22.20
2023-05-12T14:52:06.186Z,22.67
2023-05-12T14:54:33.197Z,22.45
2023-05-12T14:57:00.962Z,22.10
2023-05-12T14:59:28.921Z,22.15
2023-05-12T15:01:55.362Z,21.88
2023-05-12T15:04:21.769Z,21.74
2023-05-12T15:06:48.187Z,21.63
2023-05-12T15:09:14.574Z,21.40
2023-05-12T15:11:41.048Z,21.16
2023-05-12T15:14:08.749Z,21.06
2023-05-12T15:16:35.226Z,21.05
2023-05-12T15:19:01.782Z,21.44
2023-05-12T15:21:28.271Z,21.97
2023-05-12T15:23:54.701Z,22.18
2023-05-12T15:26:32.696Z,22.00
2023-05-12T15:29:00.515Z,22.40
2023-05-12T15:31:30.060Z,22.50
2023-05-12T15:33:56.918Z,22.91
2023-05-12T15:36:23.639Z,22.44
2023-05-12T15:38:50.027Z,22.49
2023-05-12T15:41:16.415Z,22.15
2023-05-12T15:43:42.812Z,21.95
2023-05-12T15:46:09.353Z,21.58
2023-05-12T15:48:37.096Z,21.45
2023-05-12T15:51:03.598Z,21.36
2023-05-12T15:53:30.042Z,21.96
2023-05-12T15:56:00.163Z,22.26
2023-05-12T15:58:26.544Z,21.99
2023-05-12T16:00:53.371Z,22.11
2023-05-12T16:03:19.884Z,21.80
2023-05-12T16:05:47.722Z,21.56
2023-05-12T16:08:14.183Z,21.62
2023-05-12T16:10:40.787Z,21.43
2023-05-12T16:13:07.182Z,21.24
2023-05-12T16:15:33.926Z,21.19
2023-05-12T16:18:00.432Z,21.10
2023-05-12T16:20:26.961Z,21.23
2023-05-12T16:22:54.732Z,21.21
2023-05-12T16:25:21.536Z,21.61
2023-05-12T16:27:48.116Z,21.34
2023-05-12T16:30:14.981Z,21.51
2023-05-12T16:32:42.289Z,22.09
2023-05-12T16:35:09.217Z,22.19
2023-05-12T16:37:35.640Z,21.94
2023-05-12T16:40:03.561Z,21.92
2023-05-12T16:42:29.946Z,21.62
2023-05-12T16:44:56.383Z,21.50
2023-05-12T16:47:22.854Z,21.54
2023-05-12T16:49:51.885Z,21.96
2023-05-12T16:52:18.260Z,21.28
2023-05-12T16:54:44.627Z,21.52
2023-05-12T16:57:12.327Z,21.42
2023-05-12T16:59:38.851Z,21.39
2023-05-12T17:02:05.668Z,21.34
2023-05-12T17:04:32.083Z,21.29
2023-05-12T17:06:58.515Z,21.15
2023-05-12T17:09:24.876Z,21.13
2023-05-12T17:11:51.371Z,21.41
2023-05-12T17:14:19.448Z,21.33
2023-05-12T17:16:45.969Z,21.06
2023-05-12T17:19:14.287Z,21.08
2023-05-12T17:21:41.186Z,21.11
2023-05-12T17:24:08.461Z,21.04
2023-05-12T17:26:34.992Z,21.16
2023-05-12T17:29:02.132Z,21.30
2023-05-12T17:31:29.854Z,21.17
2023-05-12T17:33:56.399Z,21.04
2023-05-12T17:36:22.955Z,21.29
2023-05-12T17:38:50.083Z,21.11
2023-05-12T17:41:16.486Z,21.30
2023-05-12T17:43:42.983Z,21.20
2023-05-12T17:46:09.732Z,21.13
2023-05-12T17:48:37.410Z,20.96
2023-05-12T17:51:04.623Z,21.13
2023-05-12T17:53:32.049Z,21.08
2023-05-12T17:55:58.775Z,21.00
2023-05-12T17:58:25.297Z,20.96
2023-05-12T18:00:51.991Z,21.02
2023-05-12T18:03:18.513Z,21.09
2023-05-12T18:05:46.359Z,21.01
2023-05-12T18:08:12.713Z,20.92
2023-05-12T18:10:39.051Z,21.05
2023-05-12T18:13:05.430Z,20.73
2023-05-12T18:15:31.780Z,20.59
2023-05-12T18:17:58.195Z,20.68
2023-05-12T18:20:24.802Z,20.60
2023-05-12T18:22:52.652Z,20.48
2023-05-12T18:25:19.609Z,20.77
2023-05-12T18:27:46.257Z,20.69
2023-05-12T18:30:13.552Z,20.35
2023-05-12T18:32:39.921Z,20.63
2023-05-12T18:35:07.708Z,20.57
2023-05-12T18:37:34.484Z,20.11
2023-05-12T18:40:02.137Z,20.29
2023-05-12T18:42:28.509Z,20.40
2023-05-12T18:44:55.061Z,20.48
2023-05-12T18:47:21.465Z,20.29
2023-05-12T18:49:47.895Z,20.43
2023-05-12T18:52:14.249Z,20.01
2023-05-12T18:54:40.617Z,19.95
2023-05-12T18:57:08.349Z,20.09
2023-05-12T18:59:34.716Z,19.94
2023-05-12T19:02:01.253Z,19.84
2023-05-12T19:04:27.944Z,19.91
2023-05-12T19:06:54.303Z,20.00
2023-05-12T19:09:20.670Z,19.78
2023-05-12T19:11:47.067Z,19.63
2023-05-12T19:14:14.764Z,19.89
2023-05-12T19:16:41.221Z,19.78
2023-05-12T19:19:07.825Z,19.46
2023-05-12T19:21:34.366Z,20.10
2023-05-12T19:24:00.809Z,19.73
2023-05-12T19:26:27.192Z,19.63
2023-05-12T19:28:53.651Z,19.57
2023-05-12T19:31:21.410Z,19.45
2023-05-12T19:33:47.900Z,19.54
2023-05-12T19:36:14.472Z,19.21
2023-05-12T19:38:40.852Z,19.62
2023-05-12T19:41:07.218Z,19.34
2023-05-12T19:43:33.605Z,19.46
2023-05-12T19:46:00.049Z,19.29
2023-05-12T19:48:27.811Z,19.12
2023-05-12T19:50:54.416Z,19.25
2023-05-12T19:53:20.814Z,18.82
2023-05-12T19:55:47.246Z,18.74
2023-05-12T19:58:13.610Z,18.77
2023-05-12T20:00:40.003Z,18.86
2023-05-12T20:03:06.505Z,18.70
2023-05-12T20:05:35.680Z,19.03
2023-05-12T20:08:02.167Z,19.04
2023-05-12T20:10:28.572Z,18.80
2023-05-12T20:12:54.952Z,19.03
2023-05-12T20:15:23.496Z,18.70
2023-05-12T20:17:50.083Z,18.98
2023-05-12T20:20:16.528Z,18.80
2023-05-12T20:22:44.229Z,18.82
2023-05-12T20:25:10.708Z,18.58
2023-05-12T20:27:37.101Z,18.61
2023-05-12T20:30:04.398Z,18.45
2023-05-12T20:32:30.979Z,18.47
2023-05-12T20:34:57.366Z,18.43
2023-05-12T20:37:23.758Z,18.51
2023-05-12T20:39:51.555Z,18.26
2023-05-12T20:42:17.959Z,18.15
2023-05-12T20:44:44.292Z,18.28
2023-05-12T20:47:11.441Z,18.41
2023-05-12T20:49:37.822Z,18.29
2023-05-12T20:52:05.431Z,18.16
2023-05-12T20:54:31.863Z,18.10
2023-05-12T20:56:59.553Z,18.24
2023-05-12T20:59:25.906Z,18.15
2023-05-12T21:01:52.396Z,17.74
2023-05-12T21:04:18.948Z,18.05
2023-05-12T21:06:45.404Z,17.82
2023-05-12T21:09:11.935Z,17.71
2023-05-12T21:11:38.313Z,17.88
2023-05-12T21:14:06.053Z,17.40
2023-05-12T21:16:32.522Z,17.72
2023-05-12T21:18:58.958Z,17.38
2023-05-12T21:21:25.373Z,17.62
2023-05-12T21:23:51.908Z,17.59
2023-05-12T21:26:18.254Z,17.68
2023-05-12T21:28:44.631Z,17.45
2023-05-12T21:31:12.353Z,17.51
2023-05-12T21:33:38.732Z,17.39
2023-05-12T21:36:06.127Z,17.44
2023-05-12T21:38:32.502Z,17.54
2023-05-12T21:40:58.864Z,17.66
2023-05-12T21:43:25.209Z,17.12
2023-05-12T21:45:51.634Z,17.12
2023-05-12T21:48:19.422Z,17.09
2023-05-12T21:50:56.803Z,17.25
2023-05-12T21:53:23.202Z,17.25
2023-05-12T21:55:49.550Z,17.00
2023-05-12T21:58:15.960Z,16.96
2023-05-12T22:00:42.316Z,16.83
2023-05-12T22:03:08.778Z,16.95
2023-05-12T22:05:36.630Z,16.93
2023-05-12T22:08:03.154Z,16.94
2023-05-12T22:10:29.489Z,16.92
2023-05-12T22:12:56.119Z,17.11
2023-05-12T22:15:24.799Z,17.22
2023-05-12T22:17:51.161Z,16.86
2023-05-12T22:20:17.918Z,17.16
2023-05-12T22:22:45.703Z,16.95
2023-05-12T22:25:12.056Z,17.14
2023-05-12T22:27:38.558Z,17.14
2023-05-12T22:30:06.225Z,17.07
2023-05-12T22:32:32.651Z,17.15
2023-05-12T22:34:59.086Z,16.50
2023-05-12T22:37:25.540Z,17.14
2023-05-12T22:39:54.310Z,16.95
2023-05-12T22:42:20.820Z,16.72
2023-05-12T22:44:47.182Z,16.52
2023-05-12T22:47:13.625Z,16.59
2023-05-12T22:49:39.982Z,16.59
2023-05-12T22:52:06.896Z,16.67
2023-05-12T22:54:33.318Z,16.96
2023-05-12T22:57:01.029Z,16.59
2023-05-12T22:59:27.434Z,16.83
2023-05-12T23:01:53.847Z,16.89
2023-05-12T23:04:20.407Z,17.06
2023-05-12T23:06:46.843Z,16.92
2023-05-12T23:09:13.511Z,16.48
2023-05-12T23:11:39.895Z,16.63
2023-05-12T23:14:07.643Z,16.85
2023-05-12T23:16:34.151Z,17.18
2023-05-12T23:19:00.565Z,16.99
2023-05-12T23:21:26.964Z,16.74
2023-05-12T23:23:53.394Z,16.85
2023-05-12T23:26:19.755Z,16.39
2023-05-12T23:28:46.113Z,16.54
2023-05-12T23:31:13.948Z,16.54
2023-05-12T23:33:40.398Z,16.54
2023-05-12T23:36:07.664Z,16.59
2023-05-12T23:38:34.062Z,16.38
2023-05-12T23:41:00.474Z,16.38
2023-05-12T23:43:26.915Z,16.62
2023-05-12T23:45:53.533Z,16.41
2023-05-12T23:48:21.260Z,16.37
2023-05-12T23:50:47.732Z,16.36
2023-05-12T23:53:14.186Z,16.51
2023-05-12T23:55:40.618Z,16.36
2023-05-12T23:58:07.157Z,16.43
